createdAt,value
2018-05-21T00:02:30.943Z,95913
2018-05-21T00:05:03.304Z,95912
2018-05-21T00:07:35.666Z,95909
2018-05-21T00:10:07.435Z,95906
2018-05-21T00:12:40.440Z,95898
2018-05-21T00:15:32.198Z,95899
2018-05-21T00:18:05.180Z,95892
2018-05-21T00:20:36.806Z,95894
2018-05-21T00:23:10.887Z,95892
2018-05-21T00:25:42.464Z,95888
2018-05-21T00:28:14.635Z,95885
2018-05-21T00:30:57.074Z,95889
2018-05-21T00:33:28.513Z,95886
2018-05-21T00:35:59.732Z,95878
2018-05-21T00:38:36.963Z,95884
2018-05-21T00:41:08.284Z,95892
2018-05-21T00:43:40.986Z,95881
2018-05-21T00:49:21.443Z,95882
2018-05-21T00:51:53.379Z,95882
2018-05-21T00:54:24.958Z,95877
2018-05-21T00:56:58.276Z,95867
2018-05-21T01:02:32.395Z,95876
2018-05-21T01:05:04.249Z,95871
2018-05-21T01:07:40.228Z,95871
2018-05-21T01:10:11.651Z,95874
2018-05-21T01:12:42.998Z,95865
2018-05-21T01:15:14.451Z,95869
2018-05-21T01:17:45.924Z,95872
2018-05-21T01:20:26.850Z,95867
2018-05-21T01:22:58.462Z,95867
2018-05-21T01:25:32.496Z,95864
2018-05-21T01:28:10.483Z,95864
2018-05-21T01:30:41.916Z,95865
2018-05-21T01:33:13.641Z,95864
2018-05-21T01:35:52.579Z,95870
2018-05-21T01:38:24.028Z,95866
2018-05-21T01:40:55.472Z,95869
2018-05-21T01:43:27.263Z,95863
2018-05-21T01:45:58.675Z,95862
2018-05-21T01:48:30.863Z,95858
2018-05-21T01:51:02.089Z,95865
2018-05-21T01:53:33.951Z,95859
2018-05-21T01:56:18.338Z,95858
2018-05-21T01:58:50.431Z,95856
2018-05-21T02:01:21.734Z,95856
2018-05-21T02:03:53.909Z,95858
2018-05-21T02:06:25.336Z,95855
2018-05-21T02:08:56.719Z,95860
2018-05-21T02:11:28.006Z,95856
2018-05-21T02:13:59.621Z,95853
2018-05-21T02:19:39.603Z,95852
2018-05-21T02:22:11.391Z,95845
2018-05-21T02:24:42.809Z,95846
2018-05-21T02:27:27.255Z,95847
2018-05-21T02:29:59.976Z,95845
2018-05-21T02:32:31.480Z,95847
2018-05-21T02:35:03.992Z,95843
2018-05-21T02:37:35.404Z,95836
2018-05-21T02:40:06.859Z,95838
2018-05-21T02:42:44.458Z,95839
2018-05-21T02:45:15.911Z,95835
2018-05-21T02:47:48.148Z,95837
2018-05-21T02:50:24.099Z,95831
2018-05-21T02:52:59.651Z,95835
2018-05-21T02:55:32.555Z,95834
2018-05-21T02:58:04.895Z,95837
2018-05-21T03:00:36.581Z,95834
2018-05-21T03:03:09.910Z,95834
2018-05-21T03:05:41.423Z,95829
2018-05-21T03:08:12.944Z,95824
2018-05-21T03:13:41.264Z,95824
2018-05-21T03:16:12.547Z,95822
2018-05-21T03:18:50.103Z,95821
2018-05-21T03:21:21.923Z,95824
2018-05-21T03:23:54.449Z,95824
2018-05-21T03:26:31.618Z,95830
2018-05-21T03:29:02.984Z,95829
2018-05-21T03:31:34.351Z,95828
2018-05-21T03:34:25.667Z,95824
2018-05-21T03:36:57.364Z,95823
2018-05-21T03:39:28.747Z,95829
2018-05-21T03:42:00.479Z,95834
2018-05-21T03:44:32.478Z,95830
2018-05-21T03:47:04.212Z,95835
2018-05-21T03:49:39.710Z,95828
2018-05-21T03:52:11.077Z,95826
2018-05-21T03:54:42.435Z,95826
2018-05-21T03:57:19.990Z,95825
2018-05-21T04:00:01.985Z,95822
2018-05-21T04:03:46.162Z,95829
2018-05-21T04:06:17.568Z,95831
2018-05-21T04:08:49.227Z,95827
2018-05-21T04:11:20.677Z,95830
2018-05-21T04:13:52.038Z,95831
2018-05-21T04:16:25.204Z,95836
2018-05-21T04:18:57.682Z,95827
2018-05-21T04:21:29.676Z,95829
2018-05-21T04:24:01.616Z,95833
2018-05-21T04:26:32.970Z,95830
2018-05-21T04:29:04.632Z,95828
2018-05-21T04:31:35.955Z,95832
2018-05-21T04:34:07.623Z,95828
2018-05-21T04:36:39.179Z,95829
2018-05-21T04:39:10.432Z,95827
2018-05-21T04:41:43.101Z,95829
2018-05-21T04:44:14.676Z,95829
2018-05-21T04:46:46.104Z,95833
2018-05-21T04:49:17.883Z,95826
2018-05-21T04:51:49.234Z,95822
2018-05-21T04:54:33.689Z,95821
2018-05-21T04:57:05.471Z,95818
2018-05-21T04:59:36.691Z,95821
2018-05-21T05:02:08.042Z,95818
2018-05-21T05:04:39.107Z,95818
2018-05-21T05:07:10.130Z,95816
2018-05-21T05:09:41.722Z,95815
2018-05-21T05:12:13.120Z,95810
2018-05-21T05:14:44.218Z,95818
2018-05-21T05:17:15.520Z,95810
2018-05-21T05:19:46.854Z,95812
2018-05-21T05:22:25.683Z,95814
2018-05-21T05:24:57.287Z,95810
2018-05-21T05:27:28.667Z,95810
2018-05-21T05:30:00.544Z,95808
2018-05-21T05:32:31.682Z,95805
2018-05-21T05:35:03.336Z,95801
2018-05-21T05:37:34.779Z,95799
2018-05-21T05:40:06.236Z,95796
2018-05-21T05:42:43.723Z,95802
2018-05-21T05:45:15.179Z,95795
2018-05-21T05:47:46.532Z,95799
2018-05-21T05:50:18.262Z,95796
2018-05-21T05:52:49.739Z,95791
2018-05-21T05:55:21.191Z,95790
2018-05-21T05:57:55.017Z,95789
2018-05-21T06:00:27.754Z,95791
2018-05-21T06:02:59.499Z,95785
2018-05-21T06:05:31.859Z,95787
2018-05-21T06:08:04.272Z,95783
2018-05-21T06:10:35.751Z,95784
2018-05-21T06:13:25.019Z,95782
2018-05-21T06:15:56.734Z,95781
2018-05-21T06:18:28.202Z,95779
2018-05-21T06:20:59.664Z,95778
2018-05-21T06:23:31.115Z,95773
2018-05-21T06:26:03.152Z,95783
2018-05-21T06:28:48.266Z,95771
2018-05-21T06:31:19.713Z,95767
2018-05-21T06:33:51.361Z,95772
2018-05-21T06:36:22.695Z,95771
2018-05-21T06:38:54.715Z,95758
2018-05-21T06:41:26.139Z,95757
2018-05-21T06:43:57.452Z,95756
2018-05-21T06:46:29.243Z,95764
2018-05-21T06:49:09.184Z,95757
2018-05-21T06:51:41.145Z,95760
2018-05-21T06:54:12.679Z,95758
2018-05-21T06:56:44.166Z,95755
2018-05-21T06:59:15.680Z,95756
2018-05-21T07:01:47.476Z,95754
2018-05-21T07:04:19.087Z,95756
2018-05-21T07:07:12.483Z,95750
2018-05-21T07:09:44.224Z,95752
2018-05-21T07:12:15.794Z,95746
2018-05-21T07:14:49.775Z,95743
2018-05-21T07:17:21.735Z,95736
2018-05-21T07:19:53.412Z,95745
2018-05-21T07:22:32.652Z,95737
2018-05-21T07:25:04.383Z,95731
2018-05-21T07:27:36.223Z,95741
2018-05-21T07:30:10.255Z,95730
2018-05-21T07:32:41.956Z,95726
2018-05-21T07:35:13.894Z,95729
2018-05-21T07:37:47.608Z,95731
2018-05-21T07:40:19.131Z,95729
2018-05-21T07:42:50.803Z,95721
2018-05-21T07:45:22.747Z,95716
2018-05-21T07:47:54.775Z,95711
2018-05-21T07:50:30.161Z,95706
2018-05-21T07:53:02.627Z,95704
2018-05-21T07:55:34.496Z,95704
2018-05-21T07:58:08.926Z,95711
2018-05-21T08:00:40.472Z,95705
2018-05-21T08:03:13.243Z,95695
2018-05-21T08:05:44.498Z,95692
2018-05-21T08:08:16.175Z,95700
2018-05-21T08:10:48.846Z,95696
2018-05-21T08:13:20.855Z,95692
2018-05-21T08:15:52.250Z,95695
2018-05-21T08:18:27.283Z,95688
2018-05-21T08:20:58.836Z,95690
2018-05-21T08:23:30.406Z,95682
2018-05-21T08:26:01.971Z,95685
2018-05-21T08:28:33.465Z,95693
2018-05-21T08:31:08.557Z,95686
2018-05-21T08:33:39.999Z,95693
2018-05-21T08:36:11.431Z,95683
2018-05-21T08:38:56.832Z,95676
2018-05-21T08:41:28.151Z,95671
2018-05-21T08:43:59.743Z,95663
2018-05-21T08:46:40.510Z,95668
2018-05-21T08:49:12.383Z,95669
2018-05-21T08:51:43.679Z,95664
2018-05-21T08:54:15.955Z,95669
2018-05-21T08:56:47.411Z,95661
2018-05-21T08:59:18.775Z,95661
2018-05-21T09:01:50.315Z,95656
2018-05-21T09:04:21.887Z,95650
2018-05-21T09:09:52.394Z,95653
2018-05-21T09:12:23.926Z,95653
2018-05-21T09:14:55.648Z,95648
2018-05-21T09:17:27.011Z,95647
2018-05-21T09:19:58.444Z,95642
2018-05-21T09:22:29.841Z,95637
2018-05-21T09:25:01.393Z,95639
2018-05-21T09:27:37.887Z,95636
2018-05-21T09:30:10.979Z,95635
2018-05-21T09:32:42.422Z,95637
2018-05-21T09:35:21.375Z,95628
2018-05-21T09:37:52.795Z,95634
2018-05-21T09:40:25.542Z,95627
2018-05-21T09:42:56.942Z,95617
2018-05-21T09:45:28.404Z,95614
2018-05-21T09:47:59.855Z,95616
2018-05-21T09:50:36.523Z,95605
2018-05-21T09:53:08.976Z,95610
2018-05-21T09:55:40.351Z,95615
2018-05-21T09:58:13.776Z,95615
2018-05-21T10:00:46.105Z,95614
2018-05-21T10:03:17.435Z,95610
2018-05-21T10:05:48.536Z,95612
2018-05-21T10:08:19.779Z,95601
2018-05-21T10:10:50.842Z,95597
2018-05-21T10:13:22.444Z,95599
2018-05-21T10:15:53.688Z,95595
2018-05-21T10:18:24.734Z,95589
2018-05-21T10:20:56.083Z,95581
2018-05-21T10:23:27.095Z,95581
2018-05-21T10:25:58.815Z,95585
2018-05-21T10:28:35.752Z,95576
2018-05-21T10:31:06.863Z,95575
2018-05-21T10:33:38.131Z,95559
2018-05-21T10:36:09.490Z,95558
2018-05-21T10:38:40.847Z,95561
2018-05-21T10:41:12.879Z,95568
2018-05-21T10:43:44.514Z,95554
2018-05-21T10:46:15.950Z,95558
2018-05-21T10:48:47.662Z,95559
2018-05-21T10:51:19.093Z,95554
2018-05-21T10:53:50.562Z,95554
2018-05-21T10:56:22.251Z,95552
2018-05-21T10:58:53.599Z,95542
2018-05-21T11:04:32.471Z,95542
2018-05-21T11:07:03.767Z,95542
2018-05-21T11:09:35.136Z,95543
2018-05-21T11:12:06.579Z,95539
2018-05-21T11:14:37.915Z,95540
2018-05-21T11:17:09.252Z,95539
2018-05-21T11:19:40.332Z,95536
2018-05-21T11:22:11.668Z,95520
2018-05-21T11:24:47.800Z,95523
2018-05-21T11:27:19.139Z,95521
2018-05-21T11:29:50.634Z,95523
2018-05-21T11:32:21.981Z,95516
2018-05-21T11:34:53.176Z,95519
2018-05-21T11:37:36.044Z,95515
2018-05-21T11:40:07.392Z,95510
2018-05-21T11:42:38.434Z,95507
2018-05-21T11:48:06.559Z,95506
2018-05-21T11:50:38.408Z,95499
2018-05-21T11:53:11.098Z,95499
2018-05-21T11:55:42.932Z,95500
2018-05-21T11:58:14.544Z,95488
2018-05-21T12:00:57.296Z,95488
2018-05-21T12:03:29.251Z,95498
2018-05-21T12:06:00.604Z,95486
2018-05-21T12:08:32.531Z,95492
2018-05-21T12:11:03.899Z,95488
2018-05-21T12:13:35.297Z,95488
2018-05-21T12:19:09.135Z,95469
2018-05-21T12:21:40.528Z,95468
2018-05-21T12:24:11.978Z,95475
2018-05-21T12:26:43.331Z,95478
2018-05-21T12:29:18.674Z,95473
2018-05-21T12:31:50.246Z,95477
2018-05-21T12:34:21.595Z,95474
2018-05-21T12:36:52.918Z,95477
2018-05-21T12:39:24.429Z,95464
2018-05-21T12:42:19.492Z,95464
2018-05-21T12:44:51.420Z,95462
2018-05-21T12:47:22.779Z,95463
2018-05-21T12:49:54.438Z,95464
2018-05-21T12:52:26.144Z,95468
2018-05-21T12:54:57.836Z,95470
2018-05-21T12:57:30.804Z,95470
2018-05-21T13:00:02.463Z,95469
2018-05-21T13:02:34.071Z,95474
2018-05-21T13:05:17.377Z,95473
2018-05-21T13:07:53.465Z,95466
2018-05-21T13:10:30.747Z,95461
2018-05-21T13:13:03.820Z,95456
2018-05-21T13:15:40.476Z,95455
2018-05-21T13:18:13.631Z,95458
2018-05-21T13:20:59.284Z,95453
2018-05-21T13:23:30.703Z,95447
2018-05-21T13:26:02.662Z,95445
2018-05-21T13:28:34.541Z,95444
2018-05-21T13:31:06.915Z,95443
2018-05-21T13:33:38.382Z,95441
2018-05-21T13:36:14.912Z,95430
2018-05-21T13:38:46.267Z,95438
2018-05-21T13:41:17.655Z,95438
2018-05-21T13:43:49.375Z,95427
2018-05-21T13:46:20.883Z,95424
2018-05-21T13:48:52.271Z,95419
2018-05-21T13:51:23.952Z,95419
2018-05-21T13:53:55.317Z,95414
2018-05-21T13:56:28.092Z,95407
2018-05-21T13:58:59.479Z,95398
2018-05-21T14:01:30.785Z,95397
2018-05-21T14:04:02.227Z,95396
2018-05-21T14:06:33.727Z,95397
2018-05-21T14:09:06.575Z,95395
2018-05-21T14:11:38.059Z,95395
2018-05-21T14:14:09.343Z,95387
2018-05-21T14:16:52.719Z,95388
2018-05-21T14:19:24.349Z,95386
2018-05-21T14:21:56.111Z,95387
2018-05-21T14:24:27.454Z,95388
2018-05-21T14:26:59.082Z,95375
2018-05-21T14:29:30.523Z,95373
2018-05-21T14:32:04.715Z,95370
2018-05-21T14:34:36.934Z,95367
2018-05-21T14:37:21.361Z,95366
2018-05-21T14:39:52.899Z,95363
2018-05-21T14:42:34.476Z,95351
2018-05-21T14:45:13.507Z,95357
2018-05-21T14:47:51.654Z,95359
2018-05-21T14:50:23.943Z,95342
2018-05-21T14:52:55.691Z,95345
2018-05-21T14:55:27.142Z,95354
2018-05-21T14:57:58.399Z,95347
2018-05-21T15:00:30.307Z,95340
2018-05-21T15:03:02.487Z,95341
2018-05-21T15:05:34.182Z,95337
2018-05-21T15:08:06.262Z,95332
2018-05-21T15:10:38.846Z,95325
2018-05-21T15:13:12.200Z,95322
2018-05-21T15:15:43.275Z,95327
2018-05-21T15:18:14.718Z,95326
2018-05-21T15:20:45.719Z,95324
2018-05-21T15:23:16.768Z,95319
2018-05-21T15:25:48.127Z,95316
2018-05-21T15:28:20.741Z,95325
2018-05-21T15:30:52.609Z,95312
2018-05-21T15:33:23.963Z,95315
2018-05-21T15:35:55.281Z,95324
2018-05-21T15:38:38.006Z,95313
2018-05-21T15:41:09.343Z,95314
2018-05-21T15:43:40.680Z,95316
2018-05-21T15:46:19.323Z,95310
2018-05-21T15:48:51.640Z,95314
2018-05-21T15:51:25.783Z,95308
2018-05-21T15:53:58.085Z,95303
2018-05-21T15:56:29.508Z,95300
2018-05-21T15:59:00.879Z,95303
2018-05-21T16:01:32.211Z,95301
2018-05-21T16:04:04.907Z,95299
2018-05-21T16:06:37.567Z,95302
2018-05-21T16:09:09.264Z,95299
2018-05-21T16:11:40.275Z,95300
2018-05-21T16:14:13.069Z,95304
2018-05-21T16:16:44.595Z,95300
2018-05-21T16:19:16.186Z,95298
2018-05-21T16:21:48.827Z,95297
2018-05-21T16:24:20.308Z,95290
2018-05-21T16:26:51.378Z,95287
2018-05-21T16:29:23.145Z,95288
2018-05-21T16:31:54.251Z,95284
2018-05-21T16:34:25.298Z,95281
2018-05-21T16:36:56.637Z,95286
2018-05-21T16:39:27.916Z,95283
2018-05-21T16:41:59.324Z,95282
2018-05-21T16:44:30.780Z,95278
2018-05-21T16:47:01.851Z,95279
2018-05-21T16:49:42.559Z,95286
2018-05-21T16:52:13.580Z,95283
2018-05-21T16:54:45.374Z,95284
2018-05-21T16:57:19.027Z,95281
2018-05-21T16:59:52.273Z,95284
2018-05-21T17:02:24.444Z,95282
2018-05-21T17:04:56.275Z,95284
2018-05-21T17:07:27.651Z,95286
2018-05-21T17:09:59.025Z,95281
2018-05-21T17:12:32.428Z,95281
2018-05-21T17:15:04.144Z,95281
2018-05-21T17:17:35.164Z,95276
2018-05-21T17:20:06.139Z,95281
2018-05-21T17:22:36.941Z,95283
2018-05-21T17:25:07.765Z,95280
2018-05-21T17:27:38.908Z,95288
2018-05-21T17:30:11.769Z,95284
2018-05-21T17:32:42.625Z,95287
2018-05-21T17:35:13.456Z,95288
2018-05-21T17:37:44.264Z,95288
2018-05-21T17:40:15.421Z,95287
2018-05-21T17:42:46.225Z,95289
2018-05-21T17:45:17.072Z,95289
2018-05-21T17:47:49.565Z,95288
2018-05-21T17:50:22.127Z,95286
2018-05-21T17:52:54.496Z,95286
2018-05-21T17:55:25.991Z,95285
2018-05-21T17:57:57.192Z,95289
2018-05-21T18:00:28.713Z,95287
2018-05-21T18:03:01.533Z,95291
2018-05-21T18:05:33.336Z,95292
2018-05-21T18:08:05.784Z,95291
2018-05-21T18:10:36.929Z,95292
2018-05-21T18:13:09.740Z,95291
2018-05-21T18:15:41.115Z,95284
2018-05-21T18:18:22.469Z,95293
2018-05-21T18:20:53.285Z,95290
2018-05-21T18:23:24.319Z,95295
2018-05-21T18:25:55.376Z,95288
2018-05-21T18:28:26.460Z,95297
2018-05-21T18:30:57.812Z,95299
2018-05-21T18:33:28.757Z,95303
2018-05-21T18:35:59.691Z,95303
2018-05-21T18:38:30.836Z,95303
2018-05-21T18:41:01.677Z,95299
2018-05-21T18:43:32.472Z,95302
2018-05-21T18:46:03.610Z,95301
2018-05-21T18:48:34.925Z,95302
2018-05-21T18:51:06.225Z,95307
2018-05-21T18:53:49.315Z,95300
2018-05-21T18:56:20.477Z,95301
2018-05-21T18:58:51.577Z,95303
2018-05-21T19:01:23.146Z,95304
2018-05-21T19:03:54.180Z,95304
2018-05-21T19:06:25.737Z,95304
2018-05-21T19:08:56.817Z,95307
2018-05-21T19:11:27.999Z,95306
2018-05-21T19:14:19.120Z,95305
2018-05-21T19:16:50.482Z,95305
2018-05-21T19:19:21.571Z,95306
2018-05-21T19:21:52.785Z,95313
2018-05-21T19:24:24.164Z,95319
2018-05-21T19:26:55.276Z,95325
2018-05-21T19:29:39.602Z,95323
2018-05-21T19:32:11.299Z,95319
2018-05-21T19:34:42.515Z,95323
2018-05-21T19:37:13.351Z,95324
2018-05-21T19:39:44.140Z,95322
2018-05-21T19:42:15.264Z,95324
2018-05-21T19:44:46.083Z,95324
2018-05-21T19:47:17.257Z,95319
2018-05-21T19:52:56.327Z,95322
2018-05-21T19:55:29.332Z,95323
2018-05-21T19:58:01.181Z,95331
2018-05-21T20:00:33.064Z,95333
2018-05-21T20:03:06.143Z,95331
2018-05-21T20:05:39.224Z,95328
2018-05-21T20:08:12.286Z,95331
2018-05-21T20:10:43.796Z,95330
2018-05-21T20:13:17.110Z,95337
2018-05-21T20:15:50.495Z,95333
2018-05-21T20:18:40.386Z,95336
2018-05-21T20:22:14.537Z,95330
2018-05-21T20:31:28.348Z,95335
2018-05-21T20:34:01.971Z,95339
2018-05-21T20:36:39.169Z,95334
2018-05-21T20:39:10.460Z,95340
2018-05-21T20:41:43.116Z,95333
2018-05-21T20:44:15.210Z,95335
2018-05-21T20:46:46.923Z,95338
2018-05-21T20:49:19.029Z,95337
2018-05-21T20:51:50.280Z,95336
2018-05-21T20:54:21.732Z,95336
2018-05-21T20:56:53.252Z,95334
2018-05-21T20:59:24.888Z,95333
2018-05-21T21:01:56.218Z,95334
2018-05-21T21:04:27.783Z,95334
2018-05-21T21:06:58.976Z,95334
2018-05-21T21:09:30.537Z,95336
2018-05-21T21:12:03.006Z,95337
2018-05-21T21:14:34.565Z,95340
2018-05-21T21:17:05.934Z,95337
2018-05-21T21:19:37.556Z,95341
2018-05-21T21:22:08.626Z,95341
2018-05-21T21:24:40.147Z,95345
2018-05-21T21:27:11.421Z,95342
2018-05-21T21:29:43.097Z,95342
2018-05-21T21:32:14.404Z,95339
2018-05-21T21:34:45.926Z,95341
2018-05-21T21:37:17.133Z,95334
2018-05-21T21:39:48.349Z,95331
2018-05-21T21:42:19.517Z,95341
2018-05-21T21:44:50.815Z,95339
2018-05-21T21:47:22.106Z,95341
2018-05-21T21:49:53.410Z,95339
2018-05-21T21:52:25.197Z,95343
2018-05-21T21:54:57.603Z,95340
2018-05-21T21:57:28.831Z,95336
2018-05-21T22:00:00.270Z,95336
2018-05-21T22:02:31.761Z,95332
2018-05-21T22:05:03.535Z,95334
2018-05-21T22:07:34.761Z,95337
2018-05-21T22:10:06.213Z,95341
2018-05-21T22:12:37.621Z,95335
2018-05-21T22:15:09.776Z,95339
2018-05-21T22:17:42.102Z,95331
2018-05-21T22:20:13.400Z,95331
2018-05-21T22:22:44.682Z,95329
2018-05-21T22:25:18.184Z,95332
2018-05-21T22:27:49.562Z,95330
2018-05-21T22:30:21.293Z,95322
2018-05-21T22:32:53.186Z,95321
2018-05-21T22:35:24.929Z,95322
2018-05-21T22:37:56.197Z,95317
2018-05-21T22:40:27.522Z,95318
2018-05-21T22:42:59.035Z,95316
2018-05-21T22:45:30.926Z,95317
2018-05-21T22:48:03.386Z,95318
2018-05-21T22:50:34.810Z,95317
2018-05-21T22:53:06.666Z,95314
2018-05-21T22:55:39.081Z,95311
2018-05-21T22:58:11.561Z,95314
2018-05-21T23:00:43.511Z,95313
2018-05-21T23:03:14.725Z,95305
2018-05-21T23:05:46.223Z,95309
2018-05-21T23:08:17.660Z,95306
2018-05-21T23:10:49.156Z,95302
2018-05-21T23:13:20.609Z,95300
2018-05-21T23:15:52.249Z,95291
2018-05-21T23:18:23.660Z,95297
2018-05-21T23:20:55.413Z,95294
2018-05-21T23:23:26.729Z,95296
2018-05-21T23:25:58.231Z,95295
2018-05-21T23:28:29.547Z,95296
2018-05-21T23:31:00.945Z,95294
2018-05-21T23:33:32.385Z,95293
2018-05-21T23:36:03.969Z,95288
2018-05-21T23:38:35.419Z,95295
2018-05-21T23:41:06.730Z,95291
2018-05-21T23:43:38.211Z,95288
2018-05-21T23:46:09.666Z,95283
2018-05-21T23:48:41.077Z,95288
2018-05-21T23:51:13.085Z,95287
2018-05-21T23:53:44.427Z,95285
2018-05-21T23:56:16.098Z,95285
2018-05-21T23:58:47.513Z,95285
